Time;durP1;ratioP1;P1;durP2;ratioP2;P2;SDS_P1;SDS_P2;PMS_P1;PMS_P2;Temp;Humidity;BMP_temperature;BMP_pressure;BME280_temperature;BME280_humidity;BME280_pressure;Samples;Min_cycle;Max_cycle;Signal;HPM_P1;HPM_P2
2023/05/31 00:01:24;;;;;;;33.97;2.33;;;;;;;24.30;51.46;100198.78;7314409;19;129090;-39
2023/05/31 00:03:49;;;;;;;37.50;2.53;;;;;;;24.28;51.22;100201.56;7314283;19;129501;-42
2023/05/31 00:06:15;;;;;;;32.20;2.30;;;;;;;24.29;51.50;100197.97;7313591;19;129311;-41
2023/05/31 00:08:41;;;;;;;52.77;3.00;;;;;;;24.17;51.38;100185.97;7314090;19;129279;-40
2023/05/31 00:11:07;;;;;;;55.40;3.50;;;;;;;24.24;50.12;100199.38;7312939;19;129554;-41
2023/05/31 00:13:32;;;;;;;41.40;2.50;;;;;;;24.26;50.49;100214.00;7310911;19;129250;-42
2023/05/31 00:15:58;;;;;;;33.00;2.28;;;;;;;24.15;50.98;100185.28;7314231;19;129728;-40
2023/05/31 00:18:24;;;;;;;36.03;2.20;;;;;;;24.25;51.07;100195.75;7313854;19;128920;-41
2023/05/31 00:20:49;;;;;;;40.17;2.38;;;;;;;24.28;50.78;100201.56;7313866;19;129715;-41
2023/05/31 00:23:15;;;;;;;47.65;2.90;;;;;;;24.29;51.22;100203.22;7311550;19;130016;-39
2023/05/31 00:25:40;;;;;;;38.83;2.63;;;;;;;24.28;50.63;100212.06;7313886;19;129622;-41
2023/05/31 00:28:06;;;;;;;27.17;1.98;;;;;;;24.27;50.57;100199.06;7314341;19;129446;-40
2023/05/31 00:30:31;;;;;;;61.15;3.85;;;;;;;24.29;51.02;100205.88;7312955;19;129257;-40
2023/05/31 00:32:56;;;;;;;27.27;1.92;;;;;;;24.25;51.37;100206.25;7311377;19;130405;-41
2023/05/31 00:35:22;;;;;;;40.03;2.50;;;;;;;24.28;50.65;100205.97;7310759;19;129891;-41
2023/05/31 00:37:47;;;;;;;28.80;1.90;;;;;;;24.26;50.99;100200.88;7311638;19;128826;-40
2023/05/31 00:40:13;;;;;;;65.65;3.80;;;;;;;24.17;51.24;100185.97;7312711;19;129226;-39
2023/05/31 00:42:38;;;;;;;49.57;2.83;;;;;;;24.26;50.92;100208.75;7311196;19;129770;-41
2023/05/31 00:45:06;;;;;;;42.30;2.87;;;;;;;24.25;50.99;100207.09;7313254;19;129534;-41
2023/05/31 00:47:32;;;;;;;41.58;2.78;;;;;;;24.27;50.92;100204.34;7312888;19;129988;-41
2023/05/31 00:49:58;;;;;;;52.30;2.93;;;;;;;24.21;51.00;100194.41;7313280;19;128861;-40
2023/05/31 00:52:25;;;;;;;33.57;2.27;;;;;;;24.25;51.37;100209.72;7311456;19;130736;-42
2023/05/31 00:54:50;;;;;;;38.08;2.42;;;;;;;24.26;50.49;100214.00;7310879;19;129704;-41
2023/05/31 00:57:16;;;;;;;35.80;2.50;;;;;;;24.27;51.19;100206.97;7312226;19;129145;-39
2023/05/31 00:59:42;;;;;;;46.60;2.83;;;;;;;24.27;50.57;100212.22;7313503;19;128946;-41
2023/05/31 01:02:09;;;;;;;36.87;2.33;;;;;;;24.25;50.78;100207.09;7311503;19;129149;-40
2023/05/31 01:04:34;;;;;;;28.75;1.85;;;;;;;24.25;50.32;100204.47;7311780;19;129739;-37
2023/05/31 01:07:00;;;;;;;28.63;1.93;;;;;;;24.25;50.65;100204.47;7312078;19;128994;-41
2023/05/31 01:09:27;;;;;;;75.03;4.37;;;;;;;24.27;50.89;100210.41;7312715;19;128836;-41
2023/05/31 01:12:24;;;;;;;34.05;2.20;;;;;;;24.26;51.87;100197.44;7310790;19;129295;-40
2023/05/31 01:15:07;;;;;;;43.10;2.63;;;;;;;24.24;51.30;100189.69;7310332;19;129580;-41
2023/05/31 01:18:00;;;;;;;30.58;1.98;;;;;;;24.23;51.86;100198.53;7313106;19;128989;-41
2023/05/31 01:20:34;;;;;;;73.10;4.68;;;;;;;24.24;51.94;100199.38;7312197;19;129302;-39
2023/05/31 01:23:17;;;;;;;36.03;2.42;;;;;;;24.26;51.85;100203.50;7310201;19;129723;-39
2023/05/31 01:25:54;;;;;;;27.88;1.73;;;;;;;24.25;51.87;100201.84;7313117;19;129787;-41
2023/05/31 01:28:21;;;;;;;32.42;2.05;;;;;;;24.26;51.42;100208.75;7312250;19;128887;-39
2023/05/31 01:30:49;;;;;;;34.97;2.28;;;;;;;24.24;51.05;100205.47;7312021;19;129476;-42
2023/05/31 01:33:17;;;;;;;67.32;3.53;;;;;;;24.25;50.76;100203.63;7309145;19;131093;-40
2023/05/31 01:35:42;;;;;;;38.30;2.25;;;;;;;24.23;51.04;100203.78;7310055;19;130189;-40
2023/05/31 01:38:08;;;;;;;49.70;2.90;;;;;;;24.25;50.45;100204.47;7311349;19;129385;-37
2023/05/31 01:40:35;;;;;;;56.33;3.60;;;;;;;24.25;51.17;100207.09;7311175;19;129918;-39
2023/05/31 01:43:02;;;;;;;51.92;3.03;;;;;;;24.23;51.76;100210.81;7308127;19;129346;-39
2023/05/31 01:45:29;;;;;;;30.20;1.88;;;;;;;24.22;50.78;100207.38;7312830;19;129410;-41
2023/05/31 01:48:03;;;;;;;28.73;1.88;;;;;;;24.22;51.99;100202.13;7314322;19;129444;-41
2023/05/31 01:50:29;;;;;;;62.03;3.78;;;;;;;24.23;51.11;100209.03;7317561;19;129374;-41
2023/05/31 01:52:54;;;;;;;51.53;2.87;;;;;;;24.23;51.00;100210.81;7316699;19;129389;-40
2023/05/31 01:55:20;;;;;;;53.97;3.30;;;;;;;24.24;51.57;100202.00;7315939;19;130571;-39
2023/05/31 01:57:46;;;;;;;28.80;1.73;;;;;;;24.20;50.22;100200.59;7318658;19;129001;-42
2023/05/31 02:00:12;;;;;;;74.38;4.20;;;;;;;24.22;50.85;100207.38;7318170;19;129046;-42
2023/05/31 02:02:45;;;;;;;46.22;2.60;;;;;;;24.24;51.90;100199.38;7316762;19;130246;-41
2023/05/31 02:05:12;;;;;;;40.13;2.83;;;;;;;24.21;50.96;100195.19;7318277;19;132001;-40
2023/05/31 02:07:39;;;;;;;35.55;2.42;;;;;;;24.21;51.08;100205.72;7317821;19;128990;-41
2023/05/31 02:10:05;;;;;;;33.25;2.00;;;;;;;24.23;51.81;100209.03;7317836;19;129050;-39
2023/05/31 02:12:30;;;;;;;43.07;2.53;;;;;;;24.22;51.46;100212.66;7314531;19;129059;-40
2023/05/31 02:14:56;;;;;;;65.87;3.60;;;;;;;24.21;50.79;100208.34;7316306;19;129530;-39
2023/05/31 02:17:24;;;;;;;45.40;2.80;;;;;;;24.23;51.48;100210.81;7317592;19;130182;-40
2023/05/31 02:19:53;;;;;;;33.40;2.10;;;;;;;24.19;51.41;100210.31;7317815;19;129325;-41
2023/05/31 02:22:19;;;;;;;39.22;2.35;;;;;;;24.13;51.56;100197.72;7315454;19;129608;-39
2023/05/31 02:24:45;;;;;;;33.28;2.10;;;;;;;24.22;51.52;100212.66;7319348;19;130468;-40
2023/05/31 02:27:11;;;;;;;27.73;1.83;;;;;;;24.22;51.56;100210.03;7318737;19;128777;-41
2023/05/31 02:29:37;;;;;;;35.53;2.15;;;;;;;24.22;51.21;100211.81;7317345;19;129409;-42
2023/05/31 02:32:02;;;;;;;44.20;2.58;;;;;;;24.22;51.04;100214.44;7315467;19;130622;-39
2023/05/31 02:34:28;;;;;;;48.75;2.95;;;;;;;24.23;51.38;100216.06;7316536;19;129365;-39
2023/05/31 02:36:53;;;;;;;42.97;2.70;;;;;;;24.23;51.72;100209.03;7318375;19;129502;-41
2023/05/31 02:39:19;;;;;;;28.93;1.83;;;;;;;24.23;51.57;100214.28;7316679;19;129383;-42
2023/05/31 02:41:44;;;;;;;46.67;2.83;;;;;;;24.22;51.09;100217.91;7315447;19;130421;-41
2023/05/31 02:44:10;;;;;;;34.53;2.07;;;;;;;24.21;51.57;100215.41;7317280;19;130356;-40
2023/05/31 02:46:35;;;;;;;47.13;2.93;;;;;;;24.16;50.75;100207.13;7316791;19;129075;-41
2023/05/31 02:49:01;;;;;;;34.53;2.13;;;;;;;24.21;50.96;100216.22;7316807;19;129396;-40
2023/05/31 02:51:26;;;;;;;70.80;3.95;;;;;;;24.22;51.32;100223.16;7315006;19;129691;-39
2023/05/31 02:53:52;;;;;;;6.87;0.83;;;;;;;24.22;51.23;100223.16;7316556;19;130498;-42
2023/05/31 02:56:18;;;;;;;28.07;1.63;;;;;;;24.22;51.87;100223.16;7317226;19;129217;-42
2023/05/31 02:58:43;;;;;;;39.83;2.38;;;;;;;24.23;51.49;100227.44;7315212;19;128863;-41
2023/05/31 03:01:09;;;;;;;43.60;2.50;;;;;;;24.15;51.79;100208.06;7313458;19;129109;-41
2023/05/31 03:03:34;;;;;;;29.05;1.88;;;;;;;24.22;51.50;100217.06;7312459;19;129503;-36
2023/05/31 03:06:00;;;;;;;65.87;3.73;;;;;;;24.21;51.21;100226.72;7314034;19;129693;-40
2023/05/31 03:08:25;;;;;;;33.33;2.10;;;;;;;24.22;51.42;100230.19;7315235;19;129188;-41
2023/05/31 03:10:50;;;;;;;60.77;3.43;;;;;;;24.22;51.20;100228.41;7314580;19;129235;-42
2023/05/31 03:13:16;;;;;;;25.30;1.60;;;;;;;24.21;51.53;100234.63;7313680;19;129568;-42
2023/05/31 03:15:41;;;;;;;27.17;1.90;;;;;;;24.10;51.34;100208.50;7313086;19;128949;-39
2023/05/31 03:18:07;;;;;;;43.38;2.63;;;;;;;24.22;50.77;100238.91;7315707;19;129345;-41
2023/05/31 03:20:33;;;;;;;62.30;3.73;;;;;;;24.22;50.90;100225.78;7314337;19;129239;-41
2023/05/31 03:22:58;;;;;;;45.50;2.67;;;;;;;24.19;51.06;100226.06;7313075;19;129456;-40
2023/05/31 03:25:25;;;;;;;27.70;1.80;;;;;;;24.20;51.58;100238.22;7315266;19;129038;-41
2023/05/31 03:27:50;;;;;;;55.33;3.17;;;;;;;24.10;51.65;100207.66;7315863;19;129232;-40
2023/05/31 03:30:16;;;;;;;49.70;2.93;;;;;;;24.20;51.11;100230.34;7315255;19;129027;-39
2023/05/31 03:32:41;;;;;;;34.47;2.10;;;;;;;24.22;51.32;100238.09;7313929;19;129618;-41
2023/05/31 03:35:07;;;;;;;43.78;2.67;;;;;;;24.20;52.01;100230.34;7313269;19;129134;-40
2023/05/31 03:37:33;;;;;;;54.17;3.03;;;;;;;24.16;50.93;100226.31;7315719;19;129046;-41
2023/05/31 03:39:58;;;;;;;30.47;2.10;;;;;;;24.19;51.03;100223.44;7315494;19;129154;-40
2023/05/31 03:42:24;;;;;;;28.37;1.77;;;;;;;24.16;51.25;100218.44;7313892;19;129295;-42
2023/05/31 03:44:49;;;;;;;26.73;1.70;;;;;;;24.20;51.64;100225.09;7315055;19;129287;-38
2023/05/31 03:47:15;;;;;;;49.22;2.85;;;;;;;24.19;51.38;100222.59;7315358;19;129142;-38
2023/05/31 03:49:41;;;;;;;37.22;2.08;;;;;;;24.20;52.00;100226.88;7313310;19;129776;-41
2023/05/31 03:52:08;;;;;;;43.07;2.53;;;;;;;24.20;51.76;100227.72;7312966;19;129312;-42
2023/05/31 03:54:34;;;;;;;30.42;1.77;;;;;;;24.18;51.59;100227.03;7312069;19;130058;-43
2023/05/31 03:57:00;;;;;;;60.47;3.27;;;;;;;24.19;51.19;100225.22;7313741;19;129457;-40
2023/05/31 03:59:25;;;;;;;49.57;3.10;;;;;;;24.20;50.78;100226.88;7310703;19;130170;-40
2023/05/31 04:01:51;;;;;;;28.57;1.87;;;;;;;24.19;51.70;100226.06;7310516;19;131018;-41
2023/05/31 04:04:16;;;;;;;52.30;3.10;;;;;;;24.17;50.55;100229.78;7312335;19;128923;-39
2023/05/31 04:06:41;;;;;;;63.23;3.53;;;;;;;24.16;51.75;100218.44;7314347;19;129373;-41
2023/05/31 04:09:07;;;;;;;42.33;2.53;;;;;;;24.19;51.39;100226.06;7313323;19;129246;-38
2023/05/31 04:11:32;;;;;;;20.37;1.53;;;;;;;24.19;51.17;100231.31;7309174;19;129575;-42
2023/05/31 04:13:58;;;;;;;45.03;2.73;;;;;;;24.10;51.04;100208.50;7313417;19;129041;-39
2023/05/31 04:16:23;;;;;;;69.43;3.85;;;;;;;24.19;51.21;100223.44;7312165;19;128861;-37
2023/05/31 04:18:49;;;;;;;12.43;1.17;;;;;;;24.10;51.53;100213.75;7313431;19;131041;-41
2023/05/31 04:21:14;;;;;;;48.80;2.90;;;;;;;24.18;50.55;100236.72;7309777;19;129650;-42
2023/05/31 04:23:40;;;;;;;36.53;2.07;;;;;;;24.18;51.67;100240.16;7311893;19;129024;-41
2023/05/31 04:26:06;;;;;;;44.63;2.77;;;;;;;24.18;51.28;100229.66;7314005;19;129245;-42
2023/05/31 04:28:32;;;;;;;35.72;2.08;;;;;;;24.17;50.97;100240.31;7312259;19;130224;-42
2023/05/31 04:30:57;;;;;;;29.23;1.97;;;;;;;24.18;50.97;100237.53;7313466;19;129478;-41
2023/05/31 04:33:23;;;;;;;53.90;3.00;;;;;;;24.18;50.99;100232.28;7309942;19;129648;-41
2023/05/31 04:35:50;;;;;;;31.57;1.93;;;;;;;24.18;51.63;100241.97;7312048;19;128909;-38
2023/05/31 04:38:16;;;;;;;38.67;2.33;;;;;;;24.15;50.95;100243.06;7309897;19;129600;-42
2023/05/31 04:40:42;;;;;;;31.93;2.10;;;;;;;24.17;52.00;100249.03;7312741;19;129749;-42
2023/05/31 04:43:08;;;;;;;55.53;3.07;;;;;;;24.15;51.34;100243.06;7311684;19;128965;-40
2023/05/31 04:45:33;;;;;;;15.77;1.30;;;;;;;24.16;51.42;100249.97;7313293;19;129657;-41
2023/05/31 04:47:59;;;;;;;41.00;2.40;;;;;;;24.16;51.04;100247.34;7312568;19;129256;-38
2023/05/31 04:50:25;;;;;;;65.43;4.07;;;;;;;24.15;51.75;100248.31;7311907;19;129813;-40
2023/05/31 04:52:51;;;;;;;65.97;3.50;;;;;;;24.16;51.03;100249.97;7310503;19;129170;-40
2023/05/31 04:55:17;;;;;;;44.58;2.67;;;;;;;24.17;52.27;100249.03;7310304;19;129020;-42
2023/05/31 04:57:43;;;;;;;29.25;1.83;;;;;;;24.17;51.54;100250.81;7313721;19;129723;-42
2023/05/31 05:00:15;;;;;;;39.90;2.43;;;;;;;24.16;51.53;100244.72;7309198;19;130464;-42
2023/05/31 05:02:40;;;;;;;55.60;3.10;;;;;;;24.16;50.98;100257.06;7308869;19;129005;-40
2023/05/31 05:05:06;;;;;;;77.33;4.57;;;;;;;24.17;51.84;100253.44;7311138;19;129029;-38
2023/05/31 05:07:32;;;;;;;75.43;4.07;;;;;;;24.16;52.24;100252.59;7309729;19;131674;-41
2023/05/31 05:09:57;;;;;;;33.57;2.20;;;;;;;24.15;51.55;100243.06;7311950;19;129135;-38
2023/05/31 05:12:23;;;;;;;56.00;3.27;;;;;;;24.16;51.98;100244.72;7310424;19;129343;-42
2023/05/31 05:14:48;;;;;;;32.08;2.00;;;;;;;24.15;51.78;100239.59;7308309;19;130291;-42
2023/05/31 05:17:13;;;;;;;34.83;2.20;;;;;;;24.17;51.84;100243.78;7310762;19;129967;-39
2023/05/31 05:19:39;;;;;;;7.90;0.80;;;;;;;24.15;51.34;100250.97;7310632;19;129118;-41
2023/05/31 05:22:04;;;;;;;57.10;3.30;;;;;;;24.16;50.58;100252.59;7305316;19;129903;-40
2023/05/31 05:24:29;;;;;;;58.97;3.53;;;;;;;24.17;51.54;100256.06;7309793;19;129025;-38
2023/05/31 05:26:55;;;;;;;23.47;1.47;;;;;;;24.16;52.06;100251.78;7309007;19;130171;-41
2023/05/31 05:29:20;;;;;;;58.90;3.20;;;;;;;24.13;51.99;100250.25;7309315;19;129475;-40
2023/05/31 05:31:48;;;;;;;56.37;3.07;;;;;;;24.16;51.32;100251.78;7305672;19;129020;-40
2023/05/31 05:34:14;;;;;;;40.72;2.38;;;;;;;24.12;51.80;100259.13;7310859;19;129128;-39
2023/05/31 05:36:42;;;;;;;61.10;3.78;;;;;;;24.13;52.25;100250.25;7307533;19;131089;-42
2023/05/31 05:39:08;;;;;;;37.37;2.23;;;;;;;24.14;51.29;100251.94;7310745;19;130875;-40
2023/05/31 05:41:34;;;;;;;42.83;2.43;;;;;;;24.09;51.76;100245.44;7308091;19;128889;-40
2023/05/31 05:44:00;;;;;;;36.13;2.15;;;;;;;24.13;51.31;100254.72;7311857;19;128910;-40
2023/05/31 05:46:25;;;;;;;38.60;2.40;;;;;;;24.14;51.74;100257.19;7310779;19;130181;-39
2023/05/31 05:48:50;;;;;;;86.85;4.90;;;;;;;24.14;51.61;100257.19;7310886;19;130242;-40
2023/05/31 05:51:16;;;;;;;58.07;3.27;;;;;;;24.04;49.80;100240.59;7309895;19;129027;-40
2023/05/31 05:53:42;;;;;;;35.23;2.07;;;;;;;24.25;48.21;100262.28;7311793;19;130040;-42
2023/05/31 05:56:07;;;;;;;26.50;1.67;;;;;;;24.16;47.35;100260.47;7309077;19;129377;-41
2023/05/31 05:58:32;;;;;;;52.60;2.83;;;;;;;24.08;46.34;100260.34;7307470;19;129696;-42
2023/05/31 06:00:58;;;;;;;46.13;2.63;;;;;;;24.17;46.68;100267.41;7312492;19;130767;-39
2023/05/31 06:03:23;;;;;;;28.97;1.70;;;;;;;24.16;45.70;100264.94;7308519;19;128904;-40
2023/05/31 06:05:49;;;;;;;20.33;1.50;;;;;;;24.27;45.65;100270.03;7311148;19;129615;-40
2023/05/31 06:08:15;;;;;;;74.07;4.10;;;;;;;24.19;45.61;100265.47;7310793;19;129573;-40
2023/05/31 06:10:40;;;;;;;20.17;1.50;;;;;;;24.19;45.84;100264.66;7312094;19;129158;-42
2023/05/31 06:13:06;;;;;;;31.87;2.10;;;;;;;24.18;46.25;100248.03;7308694;19;128978;-39
2023/05/31 06:15:32;;;;;;;34.88;2.38;;;;;;;24.26;44.40;100273.63;7308906;19;129221;-39
2023/05/31 06:17:58;;;;;;;47.13;2.63;;;;;;;24.10;44.97;100247.91;7311737;19;129138;-40
2023/05/31 06:20:23;;;;;;;73.43;4.37;;;;;;;24.22;43.88;100262.56;7311052;19;128963;-41
2023/05/31 06:22:52;;;;;;;45.38;2.78;;;;;;;24.35;44.52;100265.72;7309197;19;131637;-42
2023/05/31 06:25:19;;;;;;;31.80;2.13;;;;;;;24.26;44.41;100256.03;7310151;19;129341;-41
2023/05/31 06:27:45;;;;;;;;;;;;;;;24.22;43.55;100259.94;7311308;19;131066;-40
2023/05/31 06:30:12;;;;;;;27.52;1.85;;;;;;;24.21;44.38;100258.25;7311010;19;128882;-41
2023/05/31 06:32:37;;;;;;;27.55;1.88;;;;;;;24.11;44.29;100241.69;7308552;19;129282;-40
2023/05/31 06:35:03;;;;;;;23.37;1.50;;;;;;;24.26;44.39;100256.03;7313280;19;130626;-40
2023/05/31 06:37:29;;;;;;;46.83;2.70;;;;;;;24.23;43.98;100256.34;7318170;19;130347;-41
2023/05/31 06:39:54;;;;;;;27.17;1.70;;;;;;;24.19;44.55;100238.38;7317633;19;129158;-39
2023/05/31 06:42:21;;;;;;;4.73;0.80;;;;;;;24.28;44.27;100259.38;7315229;19;130051;-42
2023/05/31 06:44:46;;;;;;;53.63;3.20;;;;;;;24.26;44.58;100261.31;7316311;19;129436;-42
2023/05/31 06:47:12;;;;;;;43.87;2.53;;;;;;;24.22;44.90;100259.09;7317586;19;129182;-42
2023/05/31 06:49:37;;;;;;;31.23;1.90;;;;;;;24.36;43.81;100250.78;7318204;19;129566;-42
2023/05/31 06:52:03;;;;;;;36.63;2.35;;;;;;;24.18;44.00;100248.03;7315377;19;129242;-42
2023/05/31 06:54:28;;;;;;;28.40;1.95;;;;;;;24.28;44.28;100259.38;7316372;19;129098;-42
2023/05/31 06:56:54;;;;;;;55.07;3.30;;;;;;;24.28;43.27;100259.38;7317125;19;130748;-40
2023/05/31 06:59:19;;;;;;;34.97;2.28;;;;;;;24.32;44.57;100249.41;7316561;19;129141;-40
2023/05/31 07:01:45;;;;;;;26.73;1.73;;;;;;;24.26;43.26;100258.69;7315211;19;129178;-41
2023/05/31 07:04:10;;;;;;;48.63;2.67;;;;;;;24.27;43.51;100257.72;7316118;19;129636;-41
2023/05/31 07:06:37;;;;;;;40.00;2.37;;;;;;;24.26;43.28;100250.78;7316853;19;130198;-40
2023/05/31 07:09:03;;;;;;;;;;;;;;;24.30;43.92;100257.44;7317345;19;128859;-42
2023/05/31 07:11:29;;;;;;;41.67;2.63;;;;;;;24.30;43.85;100256.59;7315414;19;129275;-42
2023/05/31 07:13:59;;;;;;;69.57;3.90;;;;;;;24.28;43.65;100248.84;7315585;19;129213;-41
2023/05/31 07:16:24;;;;;;;36.67;2.15;;;;;;;24.35;43.95;100249.97;7314860;19;130589;-42
2023/05/31 07:18:50;;;;;;;26.17;1.83;;;;;;;24.28;44.10;100233.09;7316815;19;129515;-40
2023/05/31 07:21:15;;;;;;;57.70;3.23;;;;;;;24.36;43.54;100246.34;7315853;19;129084;-41
2023/05/31 07:23:41;;;;;;;47.97;2.50;;;;;;;24.29;43.80;100239.19;7316474;19;129004;-42
2023/05/31 07:26:06;;;;;;;49.73;2.90;;;;;;;24.41;44.01;100248.56;7315580;19;129685;-39
2023/05/31 07:28:31;;;;;;;24.27;1.80;;;;;;;24.40;43.33;100241.63;7315844;19;129772;-41
2023/05/31 07:30:57;;;;;;;43.13;2.67;;;;;;;24.28;44.36;100234.88;7314842;19;128855;-41
2023/05/31 07:33:22;;;;;;;81.85;4.43;;;;;;;24.40;44.02;100241.63;7314031;19;129353;-42
2023/05/31 07:35:48;;;;;;;30.37;2.07;;;;;;;24.42;43.16;100234.44;7314877;19;129498;-42
2023/05/31 07:38:13;;;;;;;38.50;2.43;;;;;;;24.27;44.05;100226.19;7315699;19;129606;-41
2023/05/31 07:40:38;;;;;;;34.20;2.03;;;;;;;24.35;42.91;100231.56;7315301;19;129059;-40
2023/05/31 07:43:04;;;;;;;48.07;2.80;;;;;;;24.42;44.15;100229.19;7312891;19;129553;-41
2023/05/31 07:45:29;;;;;;;31.30;1.93;;;;;;;24.43;44.30;100236.09;7315161;19;129793;-41
2023/05/31 07:47:55;;;;;;;25.67;1.60;;;;;;;24.46;44.05;100231.38;7315947;19;129506;-37
2023/05/31 07:50:20;;;;;;;60.73;3.53;;;;;;;24.40;43.82;100221.44;7315047;19;129130;-41
2023/05/31 07:52:49;;;;;;;39.88;2.65;;;;;;;24.43;43.60;100225.59;7314204;19;129100;-41
2023/05/31 07:55:16;;;;;;;37.20;2.28;;;;;;;24.44;43.45;100222.81;7313869;19;130323;-41
2023/05/31 07:57:41;;;;;;;;;;;;;;;24.45;44.02;100211.34;7315317;19;129564;-42
2023/05/31 08:00:08;;;;;;;46.00;2.72;;;;;;;24.42;42.98;100214.25;7313551;19;128865;-42
2023/05/31 08:02:33;;;;;;;37.65;2.10;;;;;;;24.45;43.90;100207.88;7312576;19;129284;-39
2023/05/31 08:05:01;;;;;;;27.10;1.73;;;;;;;24.39;43.37;100206.63;7314283;19;129849;-39
2023/05/31 08:07:27;;;;;;;31.15;1.90;;;;;;;24.44;43.20;100204.41;7314900;19;129479;-42
2023/05/31 08:09:52;;;;;;;64.37;3.57;;;;;;;24.41;43.79;100191.56;7314742;19;129280;-41
2023/05/31 08:12:18;;;;;;;56.17;3.27;;;;;;;24.46;43.31;100194.59;7311334;19;129186;-40
2023/05/31 08:14:43;;;;;;;31.80;1.90;;;;;;;24.43;43.31;100192.25;7313739;19;129164;-41
2023/05/31 08:17:09;;;;;;;37.13;2.25;;;;;;;24.48;43.16;100191.00;7314087;19;129070;-40
2023/05/31 08:19:35;;;;;;;57.90;3.23;;;;;;;24.48;43.33;100180.50;7314019;19;128777;-41
2023/05/31 08:22:00;;;;;;;33.47;2.13;;;;;;;24.33;43.20;100178.31;7312661;19;129543;-40
2023/05/31 08:24:25;;;;;;;17.10;1.33;;;;;;;24.45;43.02;100182.44;7313881;19;129469;-41
2023/05/31 08:26:51;;;;;;;42.50;2.63;;;;;;;24.49;43.80;100189.03;7313552;19;128853;-40
2023/05/31 08:29:16;;;;;;;66.47;3.80;;;;;;;24.52;42.78;100176.59;7313495;19;129212;-40
2023/05/31 08:31:42;;;;;;;3.53;0.50;;;;;;;24.45;43.98;100186.84;7313240;19;130217;-42
2023/05/31 08:34:07;;;;;;;40.40;2.37;;;;;;;24.45;43.12;100184.22;7314311;19;129141;-41
2023/05/31 08:36:34;;;;;;;29.57;2.00;;;;;;;24.45;43.38;100179.78;7311621;19;129792;-41
2023/05/31 08:38:59;;;;;;;33.00;1.92;;;;;;;24.42;43.34;100187.13;7314503;19;129586;-41
2023/05/31 08:41:29;;;;;;;43.47;2.60;;;;;;;24.46;43.10;100184.06;7313259;19;128974;-38
2023/05/31 08:43:55;;;;;;;29.30;1.83;;;;;;;24.45;43.51;100177.16;7313667;19;130221;-42
2023/05/31 08:46:20;;;;;;;35.07;2.00;;;;;;;24.45;43.12;100177.16;7314774;19;129486;-42
2023/05/31 08:48:53;;;;;;;58.70;3.33;;;;;;;24.42;44.51;100174.00;7314101;19;129220;-41
2023/05/31 08:51:19;;;;;;;39.08;2.30;;;;;;;24.48;43.53;100181.28;7312954;19;131480;-40
2023/05/31 08:53:46;;;;;;;38.05;2.13;;;;;;;24.48;43.46;100177.84;7314385;19;130396;-42
2023/05/31 08:56:13;;;;;;;36.20;2.33;;;;;;;24.48;42.98;100171.63;7311388;19;129058;-41
2023/05/31 08:58:42;;;;;;;52.20;2.80;;;;;;;24.47;43.67;100179.66;7311434;19;129114;-43
2023/05/31 09:01:08;;;;;;;44.97;2.65;;;;;;;24.43;42.72;100168.59;7314566;19;129683;-42
2023/05/31 09:03:34;;;;;;;26.33;1.60;;;;;;;24.48;42.78;100166.38;7311226;19;129355;-42
2023/05/31 09:05:59;;;;;;;42.83;2.75;;;;;;;24.45;43.44;100166.66;7313262;19;130985;-42
2023/05/31 09:08:25;;;;;;;56.57;3.17;;;;;;;24.42;43.53;100166.13;7313029;19;129625;-41
2023/05/31 09:10:50;;;;;;;24.67;1.63;;;;;;;24.48;43.46;100169.00;7311872;19;131162;-39
2023/05/31 09:13:16;;;;;;;26.83;1.53;;;;;;;24.49;43.75;100168.00;7310076;19;129309;-41
2023/05/31 09:15:44;;;;;;;25.33;1.63;;;;;;;24.38;42.95;100143.69;7311424;19;128761;-40
2023/05/31 09:18:15;;;;;;;57.67;3.22;;;;;;;24.48;43.48;100174.25;7312639;19;129839;-41
2023/05/31 09:20:40;;;;;;;45.47;2.67;;;;;;;24.48;43.53;100163.72;7312030;19;129242;-40
2023/05/31 09:23:08;;;;;;;19.50;1.47;;;;;;;24.49;43.79;100168.00;7309690;19;129409;-41
2023/05/31 09:26:06;;;;;;;29.65;1.70;;;;;;;24.54;43.30;100159.72;7312431;19;129337;-42
2023/05/31 09:28:31;;;;;;;29.45;1.63;;;;;;;24.47;42.97;100174.38;7310927;19;129122;-42
2023/05/31 09:31:05;;;;;;;17.60;1.43;;;;;;;24.46;42.70;100157.78;7311106;19;129018;-40
2023/05/31 09:33:44;;;;;;;50.85;2.83;;;;;;;24.46;43.17;100154.34;7308934;19;129203;-41
2023/05/31 09:36:11;;;;;;;49.83;2.75;;;;;;;24.44;42.99;100138.69;7311040;19;129425;-42
2023/05/31 09:38:37;;;;;;;35.03;2.20;;;;;;;24.40;42.92;100126.84;7312486;19;130315;-42
2023/05/31 09:41:20;;;;;;;44.92;2.65;;;;;;;24.45;43.17;100148.25;7311089;19;129776;-42
2023/05/31 09:43:47;;;;;;;31.10;1.88;;;;;;;24.48;43.42;100135.81;7311441;19;129498;-39
2023/05/31 09:46:14;;;;;;;46.80;2.70;;;;;;;24.46;42.66;100139.38;7311407;19;129497;-42
2023/05/31 09:48:40;;;;;;;49.72;2.78;;;;;;;24.51;42.80;100149.44;7311659;19;128820;-39
2023/05/31 09:51:08;;;;;;;53.30;3.03;;;;;;;24.44;42.99;100141.31;7310921;19;129432;-39
2023/05/31 09:53:39;;;;;;;34.17;2.00;;;;;;;24.35;42.65;100126.44;7309071;19;129191;-39
2023/05/31 09:56:08;;;;;;;51.28;2.90;;;;;;;24.43;42.67;100131.78;7310417;19;129603;-41
2023/05/31 09:58:34;;;;;;;55.20;3.05;;;;;;;24.41;43.13;100130.31;7311916;19;129193;-40
2023/05/31 10:00:59;;;;;;;46.77;2.77;;;;;;;24.46;43.20;100134.13;7311529;19;131274;-42
2023/05/31 10:03:28;;;;;;;30.98;1.77;;;;;;;24.47;43.87;100132.34;7307992;19;131765;-41
2023/05/31 10:05:53;;;;;;;35.20;2.10;;;;;;;24.39;42.53;100126.97;7311915;19;129258;-41
2023/05/31 10:08:20;;;;;;;50.77;2.77;;;;;;;24.51;43.08;100138.13;7312181;19;129013;-40
2023/05/31 10:10:46;;;;;;;26.83;1.52;;;;;;;24.45;43.51;100135.13;7319048;19;129059;-41
2023/05/31 10:13:14;;;;;;;40.40;2.60;;;;;;;24.53;42.62;100125.69;7315991;19;129631;-42
2023/05/31 10:15:41;;;;;;;34.58;2.03;;;;;;;24.49;42.87;100125.94;7316717;19;129448;-42
2023/05/31 10:18:11;;;;;;;50.25;2.63;;;;;;;24.39;43.40;100106.75;7317445;19;128920;-39
2023/05/31 10:20:55;;;;;;;53.25;3.15;;;;;;;24.52;43.81;100116.13;7317278;19;129139;-39
2023/05/31 10:23:22;;;;;;;40.17;2.35;;;;;;;24.42;43.01;100103.03;7315710;19;129319;-40
2023/05/31 10:26:13;;;;;;;38.17;2.17;;;;;;;24.56;42.90;100120.13;7317708;19;129058;-41
2023/05/31 10:28:47;;;;;;;28.88;1.75;;;;;;;24.54;43.57;100114.19;7318322;19;129775;-40
2023/05/31 10:31:14;;;;;;;31.33;1.75;;;;;;;24.46;43.18;100113.09;7316595;19;129763;-40
2023/05/31 10:33:47;;;;;;;42.63;2.33;;;;;;;24.44;42.24;100115.03;7317724;19;129207;-41
2023/05/31 10:36:13;;;;;;;51.65;2.85;;;;;;;24.42;42.92;100117.00;7316125;19;130074;-40
2023/05/31 10:39:07;;;;;;;29.53;1.83;;;;;;;24.54;43.16;100103.66;7318913;19;129227;-40
2023/05/31 10:41:41;;;;;;;19.63;1.42;;;;;;;24.48;42.90;100105.06;7316389;19;129337;-42
2023/05/31 10:44:12;;;;;;;15.43;1.05;;;;;;;24.42;44.05;100109.13;7318108;19;131434;-42
2023/05/31 10:46:40;;;;;;;43.78;2.63;;;;;;;24.54;42.88;100101.88;7318512;19;129480;-39
2023/05/31 10:49:09;;;;;;;32.92;2.00;;;;;;;24.49;43.51;100091.78;7318950;19;129660;-41
2023/05/31 10:51:39;;;;;;;58.58;3.22;;;;;;;24.57;43.23;100101.56;7316015;19;129399;-41
2023/05/31 10:54:05;;;;;;;25.98;1.60;;;;;;;24.53;42.84;100094.13;7318157;19;129300;-42
2023/05/31 10:56:31;;;;;;;28.50;1.53;;;;;;;24.54;43.24;100101.03;7316030;19;129183;-41
2023/05/31 10:58:56;;;;;;;35.67;2.17;;;;;;;24.49;42.96;100101.47;7316732;19;128856;-38
2023/05/31 11:01:21;;;;;;;53.80;3.07;;;;;;;24.56;42.68;100099.09;7316755;19;129250;-43
2023/05/31 11:03:50;;;;;;;27.15;1.55;;;;;;;24.52;42.94;100100.34;7318332;19;129506;-40
2023/05/31 11:06:26;;;;;;;28.23;1.58;;;;;;;24.49;42.86;100088.34;7317606;19;128973;-41
2023/05/31 11:09:00;;;;;;;23.83;1.50;;;;;;;24.48;42.66;100092.75;7317001;19;129182;-40